This is the latest recevied weather packets stored in our database for station/object KQ4WWD. If no packets are shown the sender has not sent any weather packets the latest 10 day(s).
| Time | Temp. | Humidity | Pressure | Rain* | Wind** | Luminosity | Snow |
|---|---|---|---|---|---|---|---|
| 1788013562 | 30.56° C | 80% | 1018.9 hPa | 0 mm | - | 579 W/m² | - |
| 1788013256 | 30.56° C | 79% | 1018.8 hPa | 0 mm | - | 534 W/m² | - |
| 1788012956 | 30.56° C | 80% | 1018.6 hPa | 0 mm | - | 550 W/m² | - |
| 1788012656 | 30.56° C | 80% | 1018.6 hPa | 0 mm | - | 543 W/m² | - |
| 1788012351 | 30° C | 81% | 1018.8 hPa | 0 mm | - | 524 W/m² | - |
| 1788012046 | 28.89° C | 83% | 1018.6 hPa | 0 mm | - | 492 W/m² | - |
| 1788011744 | 28.89° C | 85% | 1018.5 hPa | 0 mm | - | 491 W/m² | - |
| 1788011440 | 28.89° C | 84% | 1018.5 hPa | 0 mm | - | 454 W/m² | - |
| 1788011139 | 28.89° C | 84% | 1018.8 hPa | 0 mm | - | 397 W/m² | - |
| 1788010834 | 28.33° C | 86% | 1018.7 hPa | 0 mm | - | 365 W/m² | - |
| 1788010533 | 27.78° C | 86% | 1018.6 hPa | 0 mm | - | 347 W/m² | - |
| 1788010228 | 27.78° C | 86% | 1018.6 hPa | 0 mm | - | 324 W/m² | - |
| 1788009927 | 27.78° C | 88% | 1018.8 hPa | 0 mm | - | 314 W/m² | - |
| 1788009626 | 27.22° C | 88% | 1018.6 hPa | 0 mm | - | 289 W/m² | - |
| 1788009321 | 26.67° C | 89% | 1018.5 hPa | 0 mm | - | 267 W/m² | - |
| 1788009015 | 26.67° C | 90% | 1018.5 hPa | 0 mm | - | 240 W/m² | - |
| 1788008711 | 26.67° C | 91% | 1018.7 hPa | 0 mm | - | 242 W/m² | - |
| 1788008410 | 26.11° C | 92% | 1018.5 hPa | 0 mm | - | 225 W/m² | - |
| 1788008109 | 26.11° C | 92% | 1018.6 hPa | 0 mm | - | 216 W/m² | - |
| 1788007806 | 25.56° C | 93% | 1018.4 hPa | 0 mm | - | 84 W/m² | - |
| 1788007500 | 25.56° C | 93% | 1018.7 hPa | 0 mm | - | 78 W/m² | - |
| 1788007200 | 25.56° C | 94% | 1018.7 hPa | 0 mm | - | 75 W/m² | - |
| 1788006899 | 25° C | 94% | 1018.4 hPa | 0 mm | - | 70 W/m² | - |
| 1788006598 | 25° C | 94% | 1018.6 hPa | 0 mm | - | 88 W/m² | - |
| 1788006294 | 25° C | 94% | 1018.7 hPa | 0 mm | - | 67 W/m² | - |
* Rain latest hour (hover to see other rain measurements)
** Current wind speed in m/s (hover to see current wind gust speed)